Kadosh — UBAP8 — position and weather

sailwx.info

Track history (hours):
 
Tides and Currents Weather Stations Pressure Air Temp Water Temp Dewpoint Dewpoint Depression Visibility Wind Speed Wind Dir Waves Ship Positions

Kadosh

Last reported at 2018-Jul-13 21:33 UTC. Time now 2018-Jul-17 17:11 UTC.
Position N 45°25' E 036°42'.

Length 65 m; draft 3.2 m.

Type: Dredging. MMSI: 273396090.

Date/timePositionNaut miles runAvg speedWind from/ knotsBaromVisibWave heightAir tempDewpointWater temp
2018-Jul-13 21:33N 45°25' E 036°42'1 6.6
2018-Jul-13 21:23N 45°24' E 036°41'2 5.8
2018-Jul-13 21:00N 45°22' E 036°41'1 1.1
2018-Jul-13 20:30N 45°22' E 036°41'0 0.1
2018-Jul-13 20:00N 45°22' E 036°41'1 1.2
2018-Jul-13 19:30N 45°21' E 036°41'1 1.5
2018-Jul-13 19:00N 45°20' E 036°40'0 0.5
2018-Jul-13 18:31N 45°21' E 036°40'0 0.0
2018-Jul-13 18:00N 45°21' E 036°40'0 0.7
2018-Jul-13 17:30N 45°20' E 036°40'0 0.8
2018-Jul-13 17:00N 45°21' E 036°40'1 2.9
2018-Jul-13 16:30N 45°22' E 036°41'0 0.1
2018-Jul-13 16:00N 45°22' E 036°41'0 0.0
2018-Jul-13 15:30N 45°22' E 036°41'0 0.0
2018-Jul-13 15:01N 45°22' E 036°41'0 0.0
2018-Jul-13 14:30N 45°22' E 036°41'6 5.6
2018-Jul-13 13:30N 45°27' E 036°43'4 7.7
2018-Jul-13 12:59N 45°29' E 036°49'5 0.8
2018-Jul-13 07:10N 45°30' E 036°55'1 9.0
2018-Jul-13 07:00N 45°30' E 036°53'5 9.0
2018-Jul-13 06:30N 45°28' E 036°47'4 8.5
2018-Jul-13 06:00N 45°26' E 036°42'4 8.7
2018-Jul-13 05:31N 45°22' E 036°40'1 1.8
2018-Jul-13 05:01N 45°21' E 036°40'0 0.8
2018-Jul-13 04:30N 45°20' E 036°40'0 0.8
2018-Jul-13 04:01N 45°21' E 036°40'0 0.1
2018-Jul-13 03:30N 45°21' E 036°40'0 0.6
2018-Jul-13 03:01N 45°21' E 036°40'3 6.4
2018-Jul-13 02:30N 45°24' E 036°41'4 8.0
2018-Jul-13 02:01N 45°27' E 036°44'4 0.5
2018-Jul-12 18:45N 45°24' E 036°42'2 7.7
2018-Jul-12 18:30N 45°22' E 036°41'2 3.5
2018-Jul-12 18:00N 45°21' E 036°40'0 0.1
2018-Jul-12 17:30N 45°21' E 036°40'1 1.6
2018-Jul-12 17:00N 45°21' E 036°41'0 0.0
2018-Jul-12 16:30N 45°21' E 036°41'0 0.0
2018-Jul-12 16:00N 45°21' E 036°41'0 0.0
2018-Jul-12 15:30N 45°21' E 036°41'0 0.4
2018-Jul-12 15:00N 45°21' E 036°41'1 1.5
2018-Jul-12 14:31N 45°20' E 036°40'0 0.9
2018-Jul-12 14:01N 45°21' E 036°40'0 0.3
2018-Jul-12 13:30N 45°21' E 036°40'2 3.9
2018-Jul-12 13:00N 45°22' E 036°41'4 8.4
2018-Jul-12 12:29N 45°27' E 036°43'6 0.9
2018-Jul-12 06:10N 45°29' E 036°50'3 8.6
2018-Jul-12 05:52N 45°28' E 036°47'3 8.3
2018-Jul-12 05:30N 45°27' E 036°43'4 7.8
2018-Jul-12 05:00N 45°23' E 036°41'3 5.5
2018-Jul-12 04:31N 45°21' E 036°40'0 0.0
2018-Jul-12 04:00N 45°21' E 036°40'0 0.5
2018-Jul-12 03:30N 45°21' E 036°40'0 0.5
2018-Jul-12 03:00N 45°21' E 036°40'1 1.5
2018-Jul-12 02:29N 45°21' E 036°41'0 0.0
2018-Jul-12 02:00N 45°21' E 036°41'0 0.0
2018-Jul-12 01:30N 45°21' E 036°41'0 0.0
2018-Jul-12 01:00N 45°21' E 036°41'0 0.0
2018-Jul-12 00:30N 45°21' E 036°41'0 0.0
2018-Jul-12 00:00N 45°21' E 036°41'0 0.0
2018-Jul-11 23:30N 45°21' E 036°41'0 0.0
2018-Jul-11 23:00N 45°21' E 036°41'0 0.0
2018-Jul-11 22:30N 45°21' E 036°41'0 0.0
2018-Jul-11 22:00N 45°21' E 036°41'0 0.0
2018-Jul-11 21:30N 45°21' E 036°41'0 0.0
2018-Jul-11 21:00N 45°21' E 036°41'0 0.0
2018-Jul-11 20:30N 45°21' E 036°41'0 0.0
2018-Jul-11 20:00N 45°21' E 036°41'0 0.0
2018-Jul-11 19:30N 45°21' E 036°41'0 0.1
2018-Jul-11 19:00N 45°21' E 036°41'1 1.3
2018-Jul-11 18:30N 45°21' E 036°40'0 0.8
2018-Jul-11 18:00N 45°20' E 036°40'1 1.2
2018-Jul-11 17:30N 45°21' E 036°40'4 7.4
2018-Jul-11 17:00N 45°25' E 036°42'4 7.7
2018-Jul-11 16:27N 45°28' E 036°46'5 0.6
2018-Jul-11 08:28N 45°24' E 036°41'3 6.6
2018-Jul-11 08:00N 45°21' E 036°40'1 1.6
2018-Jul-11 07:27N 45°20' E 036°40'1 1.2
2018-Jul-11 07:00N 45°21' E 036°40'0 0.5
2018-Jul-11 06:30N 45°21' E 036°40'0 0.4
2018-Jul-11 06:00N 45°21' E 036°40'0 0.1
2018-Jul-11 05:30N 45°21' E 036°40'2 3.6
2018-Jul-11 05:00N 45°22' E 036°40'4 7.5
2018-Jul-11 04:30N 45°26' E 036°42'1 0.1
2018-Jul-10 21:02N 45°27' E 036°43'0 7.0
2018-Jul-10 21:00N 45°27' E 036°43'4 7.5
2018-Jul-10 20:30N 45°23' E 036°41'3 5.2
2018-Jul-10 19:59N 45°21' E 036°40'0 0.3
2018-Jul-10 19:30N 45°21' E 036°40'0 0.6
2018-Jul-10 19:00N 45°20' E 036°40'0 0.6
2018-Jul-10 18:31N 45°21' E 036°40'0 0.1
2018-Jul-10 18:00N 45°21' E 036°40'0 0.4
2018-Jul-10 17:30N 45°21' E 036°40'0 0.7
2018-Jul-10 16:59N 45°21' E 036°40'2 3.3
2018-Jul-10 16:30N 45°22' E 036°41'2 0.2
2018-Jul-10 07:44N 45°25' E 036°41'2 6.8
2018-Jul-10 07:30N 45°23' E 036°41'2 4.7
2018-Jul-10 07:00N 45°21' E 036°40'0 0.6
2018-Jul-10 06:30N 45°21' E 036°40'0 0.1
2018-Jul-10 06:00N 45°21' E 036°40'0 0.0
2018-Jul-10 05:30N 45°21' E 036°40'0 0.4
2018-Jul-10 05:00N 45°21' E 036°40'0 0.2
2018-Jul-10 04:30N 45°21' E 036°40'0 0.5
2018-Jul-10 04:00N 45°21' E 036°40'0 0.1
2018-Jul-10 03:30N 45°21' E 036°40'0 0.3
2018-Jul-10 03:00N 45°21' E 036°40'3 0.4
2018-Jul-09 18:30N 45°24' E 036°41'3 6.2
2018-Jul-09 18:00N 45°21' E 036°40'0 0.8
2018-Jul-09 17:30N 45°20' E 036°40'0 0.4
2018-Jul-09 17:00N 45°21' E 036°40'0 0.5
2018-Jul-09 16:30N 45°21' E 036°40'0 0.4
2018-Jul-09 16:00N 45°21' E 036°40'0 0.1
2018-Jul-09 15:30N 45°21' E 036°40'3 5.8
2018-Jul-09 15:00N 45°23' E 036°41'6 7.6
2018-Jul-09 14:17N 45°28' E 036°46'4 0.7
2018-Jul-09 08:24N 45°29' E 036°51'3 8.2
2018-Jul-09 08:00N 45°28' E 036°47'5 7.7
2018-Jul-09 07:25N 45°26' E 036°42'3 8.1
2018-Jul-09 07:00N 45°22' E 036°41'2 3.6
2018-Jul-09 06:30N 45°21' E 036°40'0 0.3
2018-Jul-09 06:00N 45°21' E 036°40'0 0.6
2018-Jul-09 05:30N 45°20' E 036°40'0 0.8
2018-Jul-09 05:00N 45°21' E 036°40'0 0.2
2018-Jul-09 04:29N 45°21' E 036°40'1 2.3
2018-Jul-09 04:00N 45°22' E 036°40'2 0.3
2018-Jul-08 19:53N 45°24' E 036°41'3 7.1
2018-Jul-08 19:29N 45°21' E 036°40'1 1.3
2018-Jul-08 19:00N 45°21' E 036°40'0 0.5
2018-Jul-08 18:30N 45°21' E 036°40'1 1.0
2018-Jul-08 18:00N 45°20' E 036°40'0 0.8
2018-Jul-08 17:30N 45°21' E 036°40'1 1.6
2018-Jul-08 17:00N 45°21' E 036°41'0 0.0
2018-Jul-08 16:30N 45°21' E 036°41'0 0.0
2018-Jul-08 15:59N 45°21' E 036°41'0 0.0
2018-Jul-08 15:30N 45°21' E 036°41'0 0.0
2018-Jul-08 15:00N 45°21' E 036°41'2 3.4
2018-Jul-08 14:30N 45°23' E 036°41'4 7.8
2018-Jul-08 14:00N 45°27' E 036°42'4 7.2
2018-Jul-08 13:30N 45°28' E 036°47'5 0.7
2018-Jul-08 05:49N 45°25' E 036°41'3 7.6
2018-Jul-08 05:29N 45°22' E 036°41'2 3.8
2018-Jul-08 05:00N 45°21' E 036°40'0 0.1
2018-Jul-08 04:30N 45°21' E 036°40'0 0.6
2018-Jul-08 04:00N 45°20' E 036°40'0 0.9
2018-Jul-08 03:30N 45°21' E 036°40'0 0.4
2018-Jul-08 02:58N 45°21' E 036°40'0 0.9
2018-Jul-08 02:31N 45°20' E 036°40'0 0.5
2018-Jul-08 01:59N 45°21' E 036°40'2 1.0
2018-Jul-08 00:32N 45°22' E 036°41'0 0.0
2018-Jul-08 00:27N 45°22' E 036°41'0 0.0
2018-Jul-07 23:52N 45°22' E 036°41'0 0.0
2018-Jul-07 23:16N 45°22' E 036°41'0 0.0
2018-Jul-07 23:00N 45°22' E 036°41'0 0.0
2018-Jul-07 22:29N 45°22' E 036°41'0 0.0
2018-Jul-07 21:03N 45°22' E 036°41'0 0.1
2018-Jul-07 20:59N 45°22' E 036°41'0 0.0
2018-Jul-07 20:23N 45°22' E 036°41'0 0.1
2018-Jul-07 20:01N 45°22' E 036°41'0 0.0
2018-Jul-07 19:30N 45°22' E 036°41'0 0.0
2018-Jul-07 18:51N 45°22' E 036°41'0 0.0
2018-Jul-07 18:29N 45°22' E 036°41'0 0.0
2018-Jul-07 17:19N 45°22' E 036°41'0 0.0
2018-Jul-07 16:35N 45°22' E 036°41'0 0.0
2018-Jul-07 16:30N 45°22' E 036°41'0 0.0
2018-Jul-07 16:00N 45°22' E 036°41'0 0.0
2018-Jul-07 15:30N 45°22' E 036°41'0 0.0
2018-Jul-07 15:00N 45°22' E 036°41'0 0.0
2018-Jul-07 14:29N 45°22' E 036°41'0 0.0
2018-Jul-07 14:00N 45°22' E 036°41'0 0.0
2018-Jul-07 13:30N 45°22' E 036°41'0 0.0
2018-Jul-07 13:00N 45°22' E 036°41'0 0.0
2018-Jul-07 12:30N 45°22' E 036°41'0 0.0
2018-Jul-07 12:00N 45°22' E 036°41'0 0.0
2018-Jul-07 11:29N 45°22' E 036°41'0 0.0
2018-Jul-07 11:00N 45°22' E 036°41'0 0.0
2018-Jul-07 10:30N 45°22' E 036°41'0 0.0
2018-Jul-07 10:01N 45°22' E 036°41'0 0.0
2018-Jul-07 09:30N 45°22' E 036°41'0 0.0
2018-Jul-07 08:59N 45°22' E 036°41'0 0.0
2018-Jul-07 08:30N 45°22' E 036°41'0 0.0
2018-Jul-07 08:00N 45°22' E 036°41'0 0.0
2018-Jul-07 07:30N 45°22' E 036°41'0 0.0
2018-Jul-07 06:59N 45°22' E 036°41'0 0.2
2018-Jul-07 06:29N 45°22' E 036°41'2 4.5
2018-Jul-07 06:01N 45°24' E 036°41'4 7.7
2018-Jul-07 05:30N 45°27' E 036°44'4 0.5
2018-Jul-06 21:50N 45°24' E 036°41'2 6.9
2018-Jul-06 21:30N 45°22' E 036°40'1 2.6
2018-Jul-06 21:00N 45°20' E 036°40'0 0.0
2018-Jul-06 20:30N 45°20' E 036°40'0 0.1
2018-Jul-06 20:00N 45°20' E 036°40'0 0.9
2018-Jul-06 19:30N 45°21' E 036°40'0 0.9
2018-Jul-06 18:59N 45°20' E 036°40'0 0.6
2018-Jul-06 18:30N 45°21' E 036°40'5 0.6
2018-Jul-06 09:50N 45°25' E 036°42'3 7.5
2018-Jul-06 09:30N 45°23' E 036°41'2 4.5
2018-Jul-06 09:00N 45°21' E 036°40'0 0.1
2018-Jul-06 08:30N 45°21' E 036°40'0 0.9
2018-Jul-06 08:01N 45°21' E 036°40'1 1.3
2018-Jul-06 07:30N 45°22' E 036°41'0 0.0
2018-Jul-06 06:56N 45°22' E 036°41'0 0.0
2018-Jul-06 06:27N 45°22' E 036°41'0 0.0
2018-Jul-06 05:54N 45°22' E 036°41'0 0.0
2018-Jul-06 05:30N 45°22' E 036°41'0 0.0
2018-Jul-06 04:58N 45°22' E 036°41'0 0.0
2018-Jul-06 04:29N 45°22' E 036°41'1 2.2
2018-Jul-06 03:59N 45°21' E 036°40'0 0.9
2018-Jul-06 03:30N 45°20' E 036°40'0 0.4
2018-Jul-06 03:00N 45°21' E 036°40'0 0.1
2018-Jul-06 02:30N 45°21' E 036°40'1 1.4
2018-Jul-06 01:59N 45°21' E 036°40'0 0.9
2018-Jul-06 01:30N 45°21' E 036°41'0 0.0
2018-Jul-06 01:00N 45°21' E 036°41'0 0.0
2018-Jul-06 00:30N 45°21' E 036°41'0 0.0
2018-Jul-06 00:00N 45°21' E 036°41'0 0.0
2018-Jul-05 23:29N 45°21' E 036°41'0 0.0
2018-Jul-05 23:00N 45°21' E 036°41'0 0.0
2018-Jul-05 22:30N 45°22' E 036°41'0 0.0
2018-Jul-05 22:00N 45°22' E 036°41'0 0.0
2018-Jul-05 21:30N 45°22' E 036°41'0 0.0
2018-Jul-05 21:00N 45°22' E 036°41'0 0.0
2018-Jul-05 20:30N 45°22' E 036°41'0 0.0
2018-Jul-05 19:49N 45°22' E 036°41'0 0.1
2018-Jul-05 19:30N 45°22' E 036°41'1 1.1
2018-Jul-05 19:00N 45°22' E 036°41'4 7.5
2018-Jul-05 18:29N 45°26' E 036°42'4 7.7
2018-Jul-05 17:59N 45°28' E 036°46'5 7.9
2018-Jul-05 17:21N 45°30' E 036°53'3 0.5
2018-Jul-05 11:54N 45°29' E 036°49'3 7.7
2018-Jul-05 11:30N 45°28' E 036°45'4 6.9
2018-Jul-05 10:59N 45°26' E 036°42'4 7.1
2018-Jul-05 10:29N 45°22' E 036°41'2 3.8
2018-Jul-05 10:00N 45°21' E 036°40'0 0.1
2018-Jul-05 09:30N 45°21' E 036°40'0 0.6
2018-Jul-05 09:00N 45°21' E 036°40'0 0.4
2018-Jul-05 08:30N 45°21' E 036°40'0 0.2
2018-Jul-05 08:00N 45°21' E 036°40'0 1.0
2018-Jul-05 07:30N 45°21' E 036°40'0 0.3
2018-Jul-05 07:00N 45°21' E 036°40'0 0.6
2018-Jul-05 06:31N 45°20' E 036°40'0 0.3
2018-Jul-05 06:00N 45°21' E 036°40'1 1.3
2018-Jul-05 05:29N 45°21' E 036°41'0 0.0
2018-Jul-05 05:00N 45°21' E 036°41'0 0.0
2018-Jul-05 04:30N 45°21' E 036°41'0 0.0
2018-Jul-05 04:00N 45°21' E 036°41'1 1.1
2018-Jul-05 03:30N 45°21' E 036°40'2 3.7
2018-Jul-05 02:59N 45°23' E 036°41'2 0.2
2018-Jul-04 18:34N 45°24' E 036°41'1 7.8
2018-Jul-04 18:29N 45°24' E 036°41'3 6.0
2018-Jul-04 18:00N 45°21' E 036°40'0 0.8
2018-Jul-04 17:30N 45°21' E 036°40'0 0.5
2018-Jul-04 17:00N 45°21' E 036°40'0 0.9
2018-Jul-04 16:30N 45°20' E 036°40'1 1.0
2018-Jul-04 15:59N 45°21' E 036°40'0 0.9
2018-Jul-04 15:28N 45°20' E 036°40'1 1.9
2018-Jul-04 15:00N 45°21' E 036°40'4 7.8
2018-Jul-04 14:30N 45°25' E 036°41'3 6.9
2018-Jul-04 14:00N 45°28' E 036°44'4 6.7
2018-Jul-04 13:27N 45°30' E 036°49'2 0.2
2018-Jul-04 06:35N 45°29' E 036°46'1 8.9
2018-Jul-04 06:30N 45°29' E 036°45'4 8.1
2018-Jul-04 06:00N 45°26' E 036°42'4 8.4
2018-Jul-04 05:30N 45°22' E 036°40'1 1.9
2018-Jul-04 04:59N 45°21' E 036°40'0 0.1
2018-Jul-04 04:29N 45°21' E 036°40'0 0.1
2018-Jul-04 04:00N 45°21' E 036°40'0 0.6
2018-Jul-04 03:30N 45°20' E 036°40'0 0.2
2018-Jul-04 03:00N 45°21' E 036°40'0 0.1
2018-Jul-04 02:30N 45°21' E 036°40'1 1.8
2018-Jul-04 01:55N 45°21' E 036°41'0 0.0
2018-Jul-04 01:30N 45°21' E 036°41'0 0.0
2018-Jul-04 01:00N 45°21' E 036°41'0 0.0
2018-Jul-04 00:30N 45°21' E 036°41'0 0.0
2018-Jul-04 00:00N 45°21' E 036°41'0 0.0
2018-Jul-03 22:21N 45°21' E 036°41'0 0.0
2018-Jul-03 21:56N 45°21' E 036°41'  
Track history (hours):
 
Tides and Currents Weather Stations Pressure Air Temp Water Temp Dewpoint Dewpoint Depression Visibility Wind Speed Wind Dir Waves Ship Positions

Kadosh

Last reported at 2018-Jul-13 21:33 UTC. Time now 2018-Jul-17 17:11 UTC.
Position N 45°25' E 036°42'.

Length 65 m; draft 3.2 m.

Type: Dredging. MMSI: 273396090.

Date/timePositionNaut miles runAvg speedWind from/ knotsBaromVisibWave heightAir tempDewpointWater temp
2018-Jul-13 21:33N 45°25' E 036°42'1 6.6
2018-Jul-13 21:23N 45°24' E 036°41'2 5.8
2018-Jul-13 21:00N 45°22' E 036°41'1 1.1
2018-Jul-13 20:30N 45°22' E 036°41'0 0.1
2018-Jul-13 20:00N 45°22' E 036°41'1 1.2
2018-Jul-13 19:30N 45°21' E 036°41'1 1.5
2018-Jul-13 19:00N 45°20' E 036°40'0 0.5
2018-Jul-13 18:31N 45°21' E 036°40'0 0.0
2018-Jul-13 18:00N 45°21' E 036°40'0 0.7
2018-Jul-13 17:30N 45°20' E 036°40'0 0.8
2018-Jul-13 17:00N 45°21' E 036°40'1 2.9
2018-Jul-13 16:30N 45°22' E 036°41'0 0.1
2018-Jul-13 16:00N 45°22' E 036°41'0 0.0
2018-Jul-13 15:30N 45°22' E 036°41'0 0.0
2018-Jul-13 15:01N 45°22' E 036°41'0 0.0
2018-Jul-13 14:30N 45°22' E 036°41'6 5.6
2018-Jul-13 13:30N 45°27' E 036°43'4 7.7
2018-Jul-13 12:59N 45°29' E 036°49'5 0.8
2018-Jul-13 07:10N 45°30' E 036°55'1 9.0
2018-Jul-13 07:00N 45°30' E 036°53'5 9.0
2018-Jul-13 06:30N 45°28' E 036°47'4 8.5
2018-Jul-13 06:00N 45°26' E 036°42'4 8.7
2018-Jul-13 05:31N 45°22' E 036°40'1 1.8
2018-Jul-13 05:01N 45°21' E 036°40'0 0.8
2018-Jul-13 04:30N 45°20' E 036°40'0 0.8
2018-Jul-13 04:01N 45°21' E 036°40'0 0.1
2018-Jul-13 03:30N 45°21' E 036°40'0 0.6
2018-Jul-13 03:01N 45°21' E 036°40'3 6.4
2018-Jul-13 02:30N 45°24' E 036°41'4 8.0
2018-Jul-13 02:01N 45°27' E 036°44'4 0.5
2018-Jul-12 18:45N 45°24' E 036°42'2 7.7
2018-Jul-12 18:30N 45°22' E 036°41'2 3.5
2018-Jul-12 18:00N 45°21' E 036°40'0 0.1
2018-Jul-12 17:30N 45°21' E 036°40'1 1.6
2018-Jul-12 17:00N 45°21' E 036°41'0 0.0
2018-Jul-12 16:30N 45°21' E 036°41'0 0.0
2018-Jul-12 16:00N 45°21' E 036°41'0 0.0
2018-Jul-12 15:30N 45°21' E 036°41'0 0.4
2018-Jul-12 15:00N 45°21' E 036°41'1 1.5
2018-Jul-12 14:31N 45°20' E 036°40'0 0.9
2018-Jul-12 14:01N 45°21' E 036°40'0 0.3
2018-Jul-12 13:30N 45°21' E 036°40'2 3.9
2018-Jul-12 13:00N 45°22' E 036°41'4 8.4
2018-Jul-12 12:29N 45°27' E 036°43'6 0.9
2018-Jul-12 06:10N 45°29' E 036°50'3 8.6
2018-Jul-12 05:52N 45°28' E 036°47'3 8.3
2018-Jul-12 05:30N 45°27' E 036°43'4 7.8
2018-Jul-12 05:00N 45°23' E 036°41'3 5.5
2018-Jul-12 04:31N 45°21' E 036°40'0 0.0
2018-Jul-12 04:00N 45°21' E 036°40'0 0.5
2018-Jul-12 03:30N 45°21' E 036°40'0 0.5
2018-Jul-12 03:00N 45°21' E 036°40'1 1.5
2018-Jul-12 02:29N 45°21' E 036°41'0 0.0
2018-Jul-12 02:00N 45°21' E 036°41'0 0.0
2018-Jul-12 01:30N 45°21' E 036°41'0 0.0
2018-Jul-12 01:00N 45°21' E 036°41'0 0.0
2018-Jul-12 00:30N 45°21' E 036°41'0 0.0
2018-Jul-12 00:00N 45°21' E 036°41'0 0.0
2018-Jul-11 23:30N 45°21' E 036°41'0 0.0
2018-Jul-11 23:00N 45°21' E 036°41'0 0.0
2018-Jul-11 22:30N 45°21' E 036°41'0 0.0
2018-Jul-11 22:00N 45°21' E 036°41'0 0.0
2018-Jul-11 21:30N 45°21' E 036°41'0 0.0
2018-Jul-11 21:00N 45°21' E 036°41'0 0.0
2018-Jul-11 20:30N 45°21' E 036°41'0 0.0
2018-Jul-11 20:00N 45°21' E 036°41'0 0.0
2018-Jul-11 19:30N 45°21' E 036°41'0 0.1
2018-Jul-11 19:00N 45°21' E 036°41'1 1.3
2018-Jul-11 18:30N 45°21' E 036°40'0 0.8
2018-Jul-11 18:00N 45°20' E 036°40'1 1.2
2018-Jul-11 17:30N 45°21' E 036°40'4 7.4
2018-Jul-11 17:00N 45°25' E 036°42'4 7.7
2018-Jul-11 16:27N 45°28' E 036°46'5 0.6
2018-Jul-11 08:28N 45°24' E 036°41'3 6.6
2018-Jul-11 08:00N 45°21' E 036°40'1 1.6
2018-Jul-11 07:27N 45°20' E 036°40'1 1.2
2018-Jul-11 07:00N 45°21' E 036°40'0 0.5
2018-Jul-11 06:30N 45°21' E 036°40'0 0.4
2018-Jul-11 06:00N 45°21' E 036°40'0 0.1
2018-Jul-11 05:30N 45°21' E 036°40'2 3.6
2018-Jul-11 05:00N 45°22' E 036°40'4 7.5
2018-Jul-11 04:30N 45°26' E 036°42'1 0.1
2018-Jul-10 21:02N 45°27' E 036°43'0 7.0
2018-Jul-10 21:00N 45°27' E 036°43'4 7.5
2018-Jul-10 20:30N 45°23' E 036°41'3 5.2
2018-Jul-10 19:59N 45°21' E 036°40'0 0.3
2018-Jul-10 19:30N 45°21' E 036°40'0 0.6
2018-Jul-10 19:00N 45°20' E 036°40'0 0.6
2018-Jul-10 18:31N 45°21' E 036°40'0 0.1
2018-Jul-10 18:00N 45°21' E 036°40'0 0.4
2018-Jul-10 17:30N 45°21' E 036°40'0 0.7
2018-Jul-10 16:59N 45°21' E 036°40'2 3.3
2018-Jul-10 16:30N 45°22' E 036°41'2 0.2
2018-Jul-10 07:44N 45°25' E 036°41'2 6.8
2018-Jul-10 07:30N 45°23' E 036°41'2 4.7
2018-Jul-10 07:00N 45°21' E 036°40'0 0.6
2018-Jul-10 06:30N 45°21' E 036°40'0 0.1
2018-Jul-10 06:00N 45°21' E 036°40'0 0.0
2018-Jul-10 05:30N 45°21' E 036°40'0 0.4
2018-Jul-10 05:00N 45°21' E 036°40'0 0.2
2018-Jul-10 04:30N 45°21' E 036°40'0 0.5
2018-Jul-10 04:00N 45°21' E 036°40'0 0.1
2018-Jul-10 03:30N 45°21' E 036°40'0 0.3
2018-Jul-10 03:00N 45°21' E 036°40'3 0.4
2018-Jul-09 18:30N 45°24' E 036°41'3 6.2
2018-Jul-09 18:00N 45°21' E 036°40'0 0.8
2018-Jul-09 17:30N 45°20' E 036°40'0 0.4
2018-Jul-09 17:00N 45°21' E 036°40'0 0.5
2018-Jul-09 16:30N 45°21' E 036°40'0 0.4
2018-Jul-09 16:00N 45°21' E 036°40'0 0.1
2018-Jul-09 15:30N 45°21' E 036°40'3 5.8
2018-Jul-09 15:00N 45°23' E 036°41'6 7.6
2018-Jul-09 14:17N 45°28' E 036°46'4 0.7
2018-Jul-09 08:24N 45°29' E 036°51'3 8.2
2018-Jul-09 08:00N 45°28' E 036°47'5 7.7
2018-Jul-09 07:25N 45°26' E 036°42'3 8.1
2018-Jul-09 07:00N 45°22' E 036°41'2 3.6
2018-Jul-09 06:30N 45°21' E 036°40'0 0.3
2018-Jul-09 06:00N 45°21' E 036°40'0 0.6
2018-Jul-09 05:30N 45°20' E 036°40'0 0.8
2018-Jul-09 05:00N 45°21' E 036°40'0 0.2
2018-Jul-09 04:29N 45°21' E 036°40'1 2.3
2018-Jul-09 04:00N 45°22' E 036°40'2 0.3
2018-Jul-08 19:53N 45°24' E 036°41'3 7.1
2018-Jul-08 19:29N 45°21' E 036°40'1 1.3
2018-Jul-08 19:00N 45°21' E 036°40'0 0.5
2018-Jul-08 18:30N 45°21' E 036°40'1 1.0
2018-Jul-08 18:00N 45°20' E 036°40'0 0.8
2018-Jul-08 17:30N 45°21' E 036°40'1 1.6
2018-Jul-08 17:00N 45°21' E 036°41'0 0.0
2018-Jul-08 16:30N 45°21' E 036°41'0 0.0
2018-Jul-08 15:59N 45°21' E 036°41'0 0.0
2018-Jul-08 15:30N 45°21' E 036°41'0 0.0
2018-Jul-08 15:00N 45°21' E 036°41'2 3.4
2018-Jul-08 14:30N 45°23' E 036°41'4 7.8
2018-Jul-08 14:00N 45°27' E 036°42'4 7.2
2018-Jul-08 13:30N 45°28' E 036°47'5 0.7
2018-Jul-08 05:49N 45°25' E 036°41'3 7.6
2018-Jul-08 05:29N 45°22' E 036°41'2 3.8
2018-Jul-08 05:00N 45°21' E 036°40'0 0.1
2018-Jul-08 04:30N 45°21' E 036°40'0 0.6
2018-Jul-08 04:00N 45°20' E 036°40'0 0.9
2018-Jul-08 03:30N 45°21' E 036°40'0 0.4
2018-Jul-08 02:58N 45°21' E 036°40'0 0.9
2018-Jul-08 02:31N 45°20' E 036°40'0 0.5
2018-Jul-08 01:59N 45°21' E 036°40'2 1.0
2018-Jul-08 00:32N 45°22' E 036°41'0 0.0
2018-Jul-08 00:27N 45°22' E 036°41'0 0.0
2018-Jul-07 23:52N 45°22' E 036°41'0 0.0
2018-Jul-07 23:16N 45°22' E 036°41'0 0.0
2018-Jul-07 23:00N 45°22' E 036°41'0 0.0
2018-Jul-07 22:29N 45°22' E 036°41'0 0.0
2018-Jul-07 21:03N 45°22' E 036°41'0 0.1
2018-Jul-07 20:59N 45°22' E 036°41'0 0.0
2018-Jul-07 20:23N 45°22' E 036°41'0 0.1
2018-Jul-07 20:01N 45°22' E 036°41'0 0.0
2018-Jul-07 19:30N 45°22' E 036°41'0 0.0
2018-Jul-07 18:51N 45°22' E 036°41'0 0.0
2018-Jul-07 18:29N 45°22' E 036°41'0 0.0
2018-Jul-07 17:19N 45°22' E 036°41'0 0.0
2018-Jul-07 16:35N 45°22' E 036°41'0 0.0
2018-Jul-07 16:30N 45°22' E 036°41'0 0.0
2018-Jul-07 16:00N 45°22' E 036°41'0 0.0
2018-Jul-07 15:30N 45°22' E 036°41'0 0.0
2018-Jul-07 15:00N 45°22' E 036°41'0 0.0
2018-Jul-07 14:29N 45°22' E 036°41'0 0.0
2018-Jul-07 14:00N 45°22' E 036°41'0 0.0
2018-Jul-07 13:30N 45°22' E 036°41'0 0.0
2018-Jul-07 13:00N 45°22' E 036°41'0 0.0
2018-Jul-07 12:30N 45°22' E 036°41'0 0.0
2018-Jul-07 12:00N 45°22' E 036°41'0 0.0
2018-Jul-07 11:29N 45°22' E 036°41'0 0.0
2018-Jul-07 11:00N 45°22' E 036°41'0 0.0
2018-Jul-07 10:30N 45°22' E 036°41'0 0.0
2018-Jul-07 10:01N 45°22' E 036°41'0 0.0
2018-Jul-07 09:30N 45°22' E 036°41'0 0.0
2018-Jul-07 08:59N 45°22' E 036°41'0 0.0
2018-Jul-07 08:30N 45°22' E 036°41'0 0.0
2018-Jul-07 08:00N 45°22' E 036°41'0 0.0
2018-Jul-07 07:30N 45°22' E 036°41'0 0.0
2018-Jul-07 06:59N 45°22' E 036°41'0 0.2
2018-Jul-07 06:29N 45°22' E 036°41'2 4.5
2018-Jul-07 06:01N 45°24' E 036°41'4 7.7
2018-Jul-07 05:30N 45°27' E 036°44'4 0.5
2018-Jul-06 21:50N 45°24' E 036°41'2 6.9
2018-Jul-06 21:30N 45°22' E 036°40'1 2.6
2018-Jul-06 21:00N 45°20' E 036°40'0 0.0
2018-Jul-06 20:30N 45°20' E 036°40'0 0.1
2018-Jul-06 20:00N 45°20' E 036°40'0 0.9
2018-Jul-06 19:30N 45°21' E 036°40'0 0.9
2018-Jul-06 18:59N 45°20' E 036°40'0 0.6
2018-Jul-06 18:30N 45°21' E 036°40'5 0.6
2018-Jul-06 09:50N 45°25' E 036°42'3 7.5
2018-Jul-06 09:30N 45°23' E 036°41'2 4.5
2018-Jul-06 09:00N 45°21' E 036°40'0 0.1
2018-Jul-06 08:30N 45°21' E 036°40'0 0.9
2018-Jul-06 08:01N 45°21' E 036°40'1 1.3
2018-Jul-06 07:30N 45°22' E 036°41'0 0.0
2018-Jul-06 06:56N 45°22' E 036°41'0 0.0
2018-Jul-06 06:27N 45°22' E 036°41'0 0.0
2018-Jul-06 05:54N 45°22' E 036°41'0 0.0
2018-Jul-06 05:30N 45°22' E 036°41'0 0.0
2018-Jul-06 04:58N 45°22' E 036°41'0 0.0
2018-Jul-06 04:29N 45°22' E 036°41'1 2.2
2018-Jul-06 03:59N 45°21' E 036°40'0 0.9
2018-Jul-06 03:30N 45°20' E 036°40'0 0.4
2018-Jul-06 03:00N 45°21' E 036°40'0 0.1
2018-Jul-06 02:30N 45°21' E 036°40'1 1.4
2018-Jul-06 01:59N 45°21' E 036°40'0 0.9
2018-Jul-06 01:30N 45°21' E 036°41'0 0.0
2018-Jul-06 01:00N 45°21' E 036°41'0 0.0
2018-Jul-06 00:30N 45°21' E 036°41'0 0.0
2018-Jul-06 00:00N 45°21' E 036°41'0 0.0
2018-Jul-05 23:29N 45°21' E 036°41'0 0.0
2018-Jul-05 23:00N 45°21' E 036°41'0 0.0
2018-Jul-05 22:30N 45°22' E 036°41'0 0.0
2018-Jul-05 22:00N 45°22' E 036°41'0 0.0
2018-Jul-05 21:30N 45°22' E 036°41'0 0.0
2018-Jul-05 21:00N 45°22' E 036°41'0 0.0
2018-Jul-05 20:30N 45°22' E 036°41'0 0.0
2018-Jul-05 19:49N 45°22' E 036°41'0 0.1
2018-Jul-05 19:30N 45°22' E 036°41'1 1.1
2018-Jul-05 19:00N 45°22' E 036°41'4 7.5
2018-Jul-05 18:29N 45°26' E 036°42'4 7.7
2018-Jul-05 17:59N 45°28' E 036°46'5 7.9
2018-Jul-05 17:21N 45°30' E 036°53'3 0.5
2018-Jul-05 11:54N 45°29' E 036°49'3 7.7
2018-Jul-05 11:30N 45°28' E 036°45'4 6.9
2018-Jul-05 10:59N 45°26' E 036°42'4 7.1
2018-Jul-05 10:29N 45°22' E 036°41'2 3.8
2018-Jul-05 10:00N 45°21' E 036°40'0 0.1
2018-Jul-05 09:30N 45°21' E 036°40'0 0.6
2018-Jul-05 09:00N 45°21' E 036°40'0 0.4
2018-Jul-05 08:30N 45°21' E 036°40'0 0.2
2018-Jul-05 08:00N 45°21' E 036°40'0 1.0
2018-Jul-05 07:30N 45°21' E 036°40'0 0.3
2018-Jul-05 07:00N 45°21' E 036°40'0 0.6
2018-Jul-05 06:31N 45°20' E 036°40'0 0.3
2018-Jul-05 06:00N 45°21' E 036°40'1 1.3
2018-Jul-05 05:29N 45°21' E 036°41'0 0.0
2018-Jul-05 05:00N 45°21' E 036°41'0 0.0
2018-Jul-05 04:30N 45°21' E 036°41'0 0.0
2018-Jul-05 04:00N 45°21' E 036°41'1 1.1
2018-Jul-05 03:30N 45°21' E 036°40'2 3.7
2018-Jul-05 02:59N 45°23' E 036°41'2 0.2
2018-Jul-04 18:34N 45°24' E 036°41'1 7.8
2018-Jul-04 18:29N 45°24' E 036°41'3 6.0
2018-Jul-04 18:00N 45°21' E 036°40'0 0.8
2018-Jul-04 17:30N 45°21' E 036°40'0 0.5
2018-Jul-04 17:00N 45°21' E 036°40'0 0.9
2018-Jul-04 16:30N 45°20' E 036°40'1 1.0
2018-Jul-04 15:59N 45°21' E 036°40'0 0.9
2018-Jul-04 15:28N 45°20' E 036°40'1 1.9
2018-Jul-04 15:00N 45°21' E 036°40'4 7.8
2018-Jul-04 14:30N 45°25' E 036°41'3 6.9
2018-Jul-04 14:00N 45°28' E 036°44'4 6.7
2018-Jul-04 13:27N 45°30' E 036°49'2 0.2
2018-Jul-04 06:35N 45°29' E 036°46'1 8.9
2018-Jul-04 06:30N 45°29' E 036°45'4 8.1
2018-Jul-04 06:00N 45°26' E 036°42'4 8.4
2018-Jul-04 05:30N 45°22' E 036°40'1 1.9
2018-Jul-04 04:59N 45°21' E 036°40'0 0.1
2018-Jul-04 04:29N 45°21' E 036°40'0 0.1
2018-Jul-04 04:00N 45°21' E 036°40'0 0.6
2018-Jul-04 03:30N 45°20' E 036°40'0 0.2
2018-Jul-04 03:00N 45°21' E 036°40'0 0.1
2018-Jul-04 02:30N 45°21' E 036°40'1 1.8
2018-Jul-04 01:55N 45°21' E 036°41'0 0.0
2018-Jul-04 01:30N 45°21' E 036°41'0 0.0
2018-Jul-04 01:00N 45°21' E 036°41'0 0.0
2018-Jul-04 00:30N 45°21' E 036°41'0 0.0
2018-Jul-04 00:00N 45°21' E 036°41'0 0.0
2018-Jul-03 22:21N 45°21' E 036°41'0 0.0
2018-Jul-03 21:56N 45°21' E 036°41'  

Dump ship's entire track history